createdAt,value
2022-12-18T00:02:14.513Z,-3.59
2022-12-18T00:04:36.375Z,-3.61
2022-12-18T00:06:58.206Z,-3.62
2022-12-18T00:09:20.570Z,-3.60
2022-12-18T00:11:42.826Z,-3.62
2022-12-18T00:14:04.853Z,-3.63
2022-12-18T00:16:29.108Z,-3.65
2022-12-18T00:18:56.220Z,-3.67
2022-12-18T00:21:19.081Z,-3.70
2022-12-18T00:23:44.033Z,-3.73
2022-12-18T00:26:16.868Z,-3.74
2022-12-18T00:28:38.894Z,-3.77
2022-12-18T00:31:16.742Z,-3.76
2022-12-18T00:33:40.059Z,-3.81
2022-12-18T00:36:14.748Z,-3.85
2022-12-18T00:38:37.519Z,-3.89
2022-12-18T00:40:59.660Z,-3.90
2022-12-18T00:43:21.508Z,-3.91
2022-12-18T00:45:43.373Z,-3.92
2022-12-18T00:48:06.203Z,-3.91
2022-12-18T00:50:28.304Z,-3.94
2022-12-18T00:52:50.421Z,-3.94
2022-12-18T00:55:13.238Z,-3.95
2022-12-18T00:57:35.244Z,-3.97
2022-12-18T00:59:57.021Z,-4.00
2022-12-18T01:02:19.062Z,-4.04
2022-12-18T01:04:40.934Z,-4.08
2022-12-18T01:07:02.723Z,-4.13
2022-12-18T01:09:24.659Z,-4.14
2022-12-18T01:11:47.475Z,-4.17
2022-12-18T01:14:09.742Z,-4.17
2022-12-18T01:16:33.108Z,-4.17
2022-12-18T01:18:56.115Z,-4.17
2022-12-18T01:21:18.090Z,-4.18
2022-12-18T01:23:40.907Z,-4.19
2022-12-18T01:26:13.874Z,-4.19
2022-12-18T01:28:36.405Z,-4.20
2022-12-18T01:30:58.387Z,-4.23
2022-12-18T01:33:20.215Z,-4.24
2022-12-18T01:35:43.638Z,-4.27
2022-12-18T01:38:05.502Z,-4.28
2022-12-18T01:40:27.301Z,-4.31
2022-12-18T01:42:54.837Z,-4.31
2022-12-18T01:45:16.569Z,-4.35
2022-12-18T01:47:56.200Z,-4.36
2022-12-18T01:50:44.072Z,-4.40
2022-12-18T01:53:09.143Z,-4.46
2022-12-18T01:55:39.482Z,-4.49
2022-12-18T01:58:02.130Z,-4.50
2022-12-18T02:00:27.308Z,-4.53
2022-12-18T02:02:50.513Z,-4.53
2022-12-18T02:05:20.790Z,-4.53
2022-12-18T02:08:10.221Z,-4.53
2022-12-18T02:10:41.353Z,-4.54
2022-12-18T02:13:50.368Z,-4.53
2022-12-18T02:16:36.428Z,-4.55
2022-12-18T02:19:08.031Z,-4.58
2022-12-18T02:22:04.317Z,-4.56
2022-12-18T02:25:34.045Z,-4.54
2022-12-18T02:28:01.659Z,-4.58
2022-12-18T02:30:24.378Z,-4.59
2022-12-18T02:32:53.873Z,-4.61
2022-12-18T02:35:25.161Z,-4.61
2022-12-18T02:37:50.606Z,-4.62
2022-12-18T02:40:15.172Z,-4.62
2022-12-18T02:42:37.061Z,-4.63
2022-12-18T02:45:01.671Z,-4.64
2022-12-18T02:47:30.483Z,-4.67
2022-12-18T02:50:26.052Z,-4.68
2022-12-18T02:53:23.106Z,-4.69
2022-12-18T02:56:30.923Z,-4.70
2022-12-18T02:59:14.245Z,-4.75
2022-12-18T03:02:03.887Z,-4.76
2022-12-18T03:04:49.775Z,-4.77
2022-12-18T03:07:28.648Z,-4.81
2022-12-18T03:09:55.742Z,-4.81
2022-12-18T03:12:45.948Z,-4.80
2022-12-18T03:15:18.076Z,-4.81
2022-12-18T03:17:49.924Z,-4.79
2022-12-18T03:20:20.022Z,-4.77
2022-12-18T03:22:47.875Z,-4.77
2022-12-18T03:25:15.669Z,-4.76
2022-12-18T03:27:47.424Z,-4.76
2022-12-18T03:30:14.656Z,-4.76
2022-12-18T03:32:57.582Z,-4.76
2022-12-18T03:35:31.383Z,-4.78
2022-12-18T03:37:53.656Z,-4.79
2022-12-18T03:40:15.960Z,-4.81
2022-12-18T03:42:53.311Z,-4.81
2022-12-18T03:45:33.687Z,-4.82
2022-12-18T03:48:06.996Z,-4.85
2022-12-18T03:50:57.897Z,-4.88
2022-12-18T03:53:32.446Z,-4.94
2022-12-18T03:55:56.840Z,-4.98
2022-12-18T03:58:27.552Z,-4.99
2022-12-18T04:01:03.787Z,-4.99
2022-12-18T04:03:30.027Z,-4.99
2022-12-18T04:05:56.297Z,-5.01
2022-12-18T04:08:19.760Z,-5.01
2022-12-18T04:10:49.895Z,-5.02
2022-12-18T04:13:12.102Z,-5.04
2022-12-18T04:15:37.313Z,-5.03
2022-12-18T04:18:01.211Z,-5.04
2022-12-18T04:20:31.168Z,-5.04
2022-12-18T04:22:54.301Z,-5.04
2022-12-18T04:25:16.452Z,-5.04
2022-12-18T04:27:50.185Z,-5.04
2022-12-18T04:30:12.618Z,-5.03
2022-12-18T04:32:35.551Z,-5.04
2022-12-18T04:34:57.430Z,-5.04
2022-12-18T04:37:19.781Z,-5.06
2022-12-18T04:39:42.431Z,-5.06
2022-12-18T04:42:11.311Z,-5.06
2022-12-18T04:44:33.175Z,-5.06
2022-12-18T04:46:55.070Z,-5.06
2022-12-18T04:49:17.939Z,-5.06
2022-12-18T04:51:40.140Z,-5.02
2022-12-18T04:54:02.094Z,-5.00
2022-12-18T04:56:24.686Z,-5.00
2022-12-18T04:58:46.717Z,-4.99
2022-12-18T05:01:10.415Z,-4.98
2022-12-18T05:03:32.879Z,-4.97
2022-12-18T05:05:54.854Z,-4.98
2022-12-18T05:08:16.822Z,-4.97
2022-12-18T05:10:38.646Z,-4.99
2022-12-18T05:13:01.125Z,-4.98
2022-12-18T05:15:23.340Z,-4.98
2022-12-18T05:17:45.606Z,-4.97
2022-12-18T05:20:08.178Z,-4.98
2022-12-18T05:22:29.953Z,-4.98
2022-12-18T05:24:51.955Z,-4.98
2022-12-18T05:27:13.763Z,-4.96
2022-12-18T05:29:35.590Z,-4.95
2022-12-18T05:31:57.523Z,-4.94
2022-12-18T05:34:19.383Z,-4.92
2022-12-18T05:36:41.223Z,-4.91
2022-12-18T05:39:03.571Z,-4.90
2022-12-18T05:41:26.178Z,-4.88
2022-12-18T05:43:48.259Z,-4.86
2022-12-18T05:46:15.889Z,-4.86
2022-12-18T05:48:37.710Z,-4.87
2022-12-18T05:51:08.021Z,-4.86
2022-12-18T05:53:29.928Z,-4.86
2022-12-18T05:55:51.785Z,-4.88
2022-12-18T05:58:15.989Z,-4.88
2022-12-18T06:00:42.006Z,-4.88
2022-12-18T06:03:03.989Z,-4.90
2022-12-18T06:05:26.549Z,-4.90
2022-12-18T06:07:48.425Z,-4.90
2022-12-18T06:10:10.514Z,-4.89
2022-12-18T06:12:34.426Z,-4.88
2022-12-18T06:14:56.285Z,-4.88
2022-12-18T06:17:18.181Z,-4.88
2022-12-18T06:19:40.006Z,-4.86
2022-12-18T06:22:01.784Z,-4.84
2022-12-18T06:24:23.647Z,-4.83
2022-12-18T06:26:45.446Z,-4.79
2022-12-18T06:29:07.387Z,-4.78
2022-12-18T06:31:29.247Z,-4.76
2022-12-18T06:33:51.597Z,-4.74
2022-12-18T06:36:14.716Z,-4.70
2022-12-18T06:38:39.801Z,-4.69
2022-12-18T06:41:06.678Z,-4.70
2022-12-18T06:43:28.696Z,-4.72
2022-12-18T06:45:53.612Z,-4.71
2022-12-18T06:48:15.660Z,-4.72
2022-12-18T06:50:37.394Z,-4.69
2022-12-18T06:52:59.213Z,-4.68
2022-12-18T06:55:21.194Z,-4.65
2022-12-18T06:57:43.130Z,-4.63
2022-12-18T07:00:07.787Z,-4.61
2022-12-18T07:02:29.749Z,-4.59
2022-12-18T07:04:51.671Z,-4.57
2022-12-18T07:07:13.704Z,-4.55
2022-12-18T07:09:35.781Z,-4.55
2022-12-18T07:11:57.595Z,-4.56
2022-12-18T07:14:20.273Z,-4.56
2022-12-18T07:16:42.132Z,-4.55
2022-12-18T07:19:04.025Z,-4.55
2022-12-18T07:21:26.599Z,-4.53
2022-12-18T07:23:49.349Z,-4.53
2022-12-18T07:26:14.869Z,-4.53
2022-12-18T07:28:38.683Z,-4.50
2022-12-18T07:31:22.244Z,-4.48
2022-12-18T07:33:45.317Z,-4.49
2022-12-18T07:36:09.008Z,-4.47
2022-12-18T07:38:32.278Z,-4.46
2022-12-18T07:40:54.124Z,-4.45
2022-12-18T07:43:16.000Z,-4.44
2022-12-18T07:45:37.813Z,-4.42
2022-12-18T07:47:59.698Z,-4.38
2022-12-18T07:50:21.635Z,-4.37
2022-12-18T07:52:43.693Z,-4.35
2022-12-18T07:55:06.315Z,-4.34
2022-12-18T08:00:12.639Z,-4.27
2022-12-18T08:02:35.003Z,-4.24
2022-12-18T08:04:57.363Z,-4.17
2022-12-18T08:07:19.559Z,-4.11
2022-12-18T08:09:41.463Z,-4.06
2022-12-18T08:12:03.718Z,-3.99
2022-12-18T08:14:25.889Z,-3.92
2022-12-18T08:16:47.954Z,-3.85
2022-12-18T08:19:09.835Z,-3.79
2022-12-18T08:21:32.764Z,-3.73
2022-12-18T08:23:57.257Z,-3.66
2022-12-18T08:26:20.167Z,-3.58
2022-12-18T08:28:43.452Z,-3.54
2022-12-18T08:31:06.301Z,-3.50
2022-12-18T08:33:28.523Z,-3.44
2022-12-18T08:35:50.557Z,-3.36
2022-12-18T08:38:12.481Z,-3.28
2022-12-18T08:40:34.577Z,-3.23
2022-12-18T08:43:15.048Z,-3.18
2022-12-18T08:45:37.052Z,-3.09
2022-12-18T08:47:58.945Z,-3.03
2022-12-18T08:50:21.188Z,-2.95
2022-12-18T08:52:43.108Z,-2.88
2022-12-18T08:55:05.897Z,-2.84
2022-12-18T08:57:27.804Z,-2.78
2022-12-18T08:59:50.080Z,-2.73
2022-12-18T09:02:12.794Z,-2.69
2022-12-18T09:04:35.111Z,-2.62
2022-12-18T09:06:57.011Z,-2.56
2022-12-18T09:09:19.038Z,-2.52
2022-12-18T09:11:40.986Z,-2.46
2022-12-18T09:14:03.048Z,-2.39
2022-12-18T09:16:32.408Z,-2.34
2022-12-18T09:19:00.499Z,-2.29
2022-12-18T09:21:22.528Z,-2.26
2022-12-18T09:23:51.054Z,-2.20
2022-12-18T09:26:12.943Z,-2.19
2022-12-18T09:28:34.913Z,-2.16
2022-12-18T09:30:57.015Z,-2.11
2022-12-18T09:33:19.066Z,-2.06
2022-12-18T09:35:44.531Z,-2.03
2022-12-18T09:38:09.725Z,-1.98
2022-12-18T09:40:42.537Z,-1.90
2022-12-18T09:43:12.308Z,-1.85
2022-12-18T09:45:48.618Z,-1.77
2022-12-18T09:48:29.167Z,-1.73
2022-12-18T09:50:58.665Z,-1.67
2022-12-18T09:53:29.415Z,-1.63
2022-12-18T09:55:55.575Z,-1.60
2022-12-18T09:58:45.516Z,-1.52
2022-12-18T10:01:24.285Z,-1.47
2022-12-18T10:03:46.585Z,-1.41
2022-12-18T10:06:38.001Z,-1.36
2022-12-18T10:09:50.865Z,-1.33
2022-12-18T10:12:33.554Z,-1.30
2022-12-18T10:15:17.899Z,-1.25
2022-12-18T10:17:51.415Z,-1.21
2022-12-18T10:20:36.400Z,-1.15
2022-12-18T10:23:19.810Z,-1.13
2022-12-18T10:26:10.794Z,-1.09
2022-12-18T10:28:38.475Z,-1.02
2022-12-18T10:31:18.555Z,-0.98
2022-12-18T10:33:42.432Z,-0.93
2022-12-18T10:36:07.631Z,-0.86
2022-12-18T10:38:33.548Z,-0.80
2022-12-18T10:41:04.415Z,-0.74
2022-12-18T10:43:34.649Z,-0.71
2022-12-18T10:46:09.066Z,-0.67
2022-12-18T10:48:35.873Z,-0.62
2022-12-18T10:51:10.861Z,-0.59
2022-12-18T10:53:38.821Z,-0.55
2022-12-18T10:56:05.849Z,-0.52
2022-12-18T10:58:38.670Z,-0.48
2022-12-18T11:01:19.384Z,-0.42
2022-12-18T11:03:45.512Z,-0.40
2022-12-18T21:42:27.117Z,0.92
2022-12-18T21:45:31.403Z,0.93
2022-12-18T23:49:12.595Z,1.09
2022-12-18T23:53:05.551Z,1.13
2022-12-18T23:55:31.825Z,1.14
2022-12-18T23:57:55.891Z,1.16
